Vinings, Georgia
Current Conditions -  °F | °C
As of 7:58 PM on Friday 19 Dec 2014 (Local Time) from KMGE Reporting Station
Overcast Overcast  
Wind Chill:   Ceiling: 14000
Heat Index:   Visibility: 10mi
Dew Point:   Wind: 6mph
Humidity: 63%   Direction: 300°WNW
Pressure: 30.15"   Gusts: NA
Location:  33.87°N, 84.47°W
Report Text: KMGE 200058Z 30005KT 10SM FEW110 BKN140 OVC200 07/00 A3015 RMK AO2A SLP216 T00661000 $
Loading
Personal Weather Stations






























Interactive Weather Map New forecast layout! Learn more

10-Day Weather Forecast

Advertisements
Track Severe Weather on mobile